Hauptseite
METAR-TAF:

METAR-TAF

Flughäfen :

Jersey,

Flughafen Jersey

Breite: 49-13N, Länge: 002-12W, Höhe: 84 m

Beobachtung

Neuester Wetterbericht von vor 28 Minuten, um 08:50 UTC
Wind 11 kt aus West/Südwest
Temperatur 12°C
Luftfeuchtigkeit 88%
Luftdruck 1020 hPa
Sichtweite 10 km oder mehr
Leicht bewölkt in der Höhe von 600 ft
Durchbrochene Bewölkung in der Höhe von 3000 ft

METAR: EGJJ 230850Z 25011KT 9999 FEW006 BKN030 12/10 Q1020

Zeit: 10:18 (09:18 UTC)

Prognose

Neuester Wetterbericht von vor 1 Stunde und 21 Minuten, um 07:57 UTC
Gültige Prognose vom 23 um 09 UTC bis 23 um 18 UTC
Wind 10 kt aus West
Sichtweite 10 km oder mehr
Leicht bewölkt in der Höhe von 800 ft
Durchbrochene Bewölkung in der Höhe von 2500 ft

TAF: EGJJ 230757Z 2309/2318 26010KT 9999 FEW008 BKN025

Wetterbeobachtungen und Prognosen von mehr als 4000 Flughäfen (METAR und TAF Bericht).

Die verfügbaren Stationen werden durch gelbe und rote Markierungen auf der Karte dargestellt.

Führen Sie die Maus auf sie, um den Namen der Station zu sehen.

Darauf klicken, um die Beobachtung von Wetterbeobachtungen und Prognosen zu sehen.

Um die Karte zu ändern : klicken Sie auf den grünen Tasten mit einem schwarzen Kreuz Zum Vergrößern, auf den grünen Button mit einem Gedankenstrich zu verkleinern, oder auf die grünen Pfeile für benachbarte Karten.


METAR-TAF: